Time;durP1;ratioP1;P1;durP2;ratioP2;P2;SDS_P1;SDS_P2;PMS_P1;PMS_P2;Temp;Humidity;BMP_temperature;BMP_pressure;BME280_temperature;BME280_humidity;BME280_pressure;Samples;Min_cycle;Max_cycle;Signal;HPM_P1;HPM_P2
2022/05/21 00:00:20;;;;;;;14.40;6.80;;;11.90;99.90;;;;;;5093277;28;20278;-67
2022/05/21 00:02:46;;;;;;;14.87;7.53;;;11.90;99.90;;;;;;5092754;28;20753;-67
2022/05/21 00:05:13;;;;;;;18.13;8.13;;;11.90;99.90;;;;;;5093337;28;20296;-67
2022/05/21 00:07:39;;;;;;;15.77;7.13;;;11.90;99.90;;;;;;5092683;28;20676;-67
2022/05/21 00:10:07;;;;;;;16.47;8.43;;;11.90;99.90;;;;;;5093427;28;20290;-67
2022/05/21 00:12:33;;;;;;;15.87;8.50;;;11.90;99.90;;;;;;5093017;28;20380;-67
2022/05/21 00:14:59;;;;;;;19.70;8.53;;;12.00;99.90;;;;;;5093189;28;20361;-67
2022/05/21 00:17:25;;;;;;;17.57;10.17;;;11.90;99.90;;;;;;5093085;28;20278;-67
2022/05/21 00:19:51;;;;;;;18.20;10.37;;;12.00;99.90;;;;;;5092664;28;20294;-67
2022/05/21 00:22:17;;;;;;;15.47;10.30;;;12.00;99.90;;;;;;5092783;28;20468;-67
2022/05/21 00:24:43;;;;;;;15.73;10.23;;;12.00;99.90;;;;;;5074749;28;20344;-67
2022/05/21 00:27:09;;;;;;;21.63;11.17;;;12.10;99.90;;;;;;5093007;28;20440;-67
2022/05/21 00:29:35;;;;;;;21.87;12.80;;;12.20;99.90;;;;;;5092763;28;20101;-68
2022/05/21 00:32:02;;;;;;;22.27;12.30;;;12.20;99.90;;;;;;5092929;28;20130;-67
2022/05/21 00:34:29;;;;;;;24.17;13.13;;;12.20;99.90;;;;;;5092798;28;20474;-67
2022/05/21 00:36:55;;;;;;;29.30;13.73;;;12.30;99.90;;;;;;5092476;28;20288;-67
2022/05/21 00:39:20;;;;;;;26.67;13.80;;;12.30;99.90;;;;;;5092928;28;20282;-67
2022/05/21 00:41:46;;;;;;;18.70;11.50;;;12.30;99.90;;;;;;5091115;28;20048;-67
2022/05/21 00:44:12;;;;;;;25.97;13.40;;;12.40;99.90;;;;;;5092907;28;20055;-67
2022/05/21 00:46:41;;;;;;;26.63;13.93;;;12.40;99.90;;;;;;5092443;28;20278;-67
2022/05/21 00:49:29;;;;;;;21.87;12.30;;;12.50;99.90;;;;;;5074947;28;20116;-67
2022/05/21 00:52:12;;;;;;;22.90;13.07;;;12.50;99.90;;;;;;5091582;28;20297;-67
2022/05/21 00:55:22;;;;;;;27.17;14.67;;;12.50;99.90;;;;;;5092426;28;20290;-69
2022/05/21 00:59:47;;;;;;;24.53;14.03;;;12.60;99.90;;;;;;5072550;28;20339;-68
2022/05/21 01:00:39;;;;;;;26.20;14.00;;;12.60;99.90;;;;;;5092169;28;20777;-68
2022/05/21 01:03:07;;;;;;;25.33;13.33;;;12.70;99.90;;;;;;5092497;28;20294;-67
2022/05/21 01:05:33;;;;;;;25.97;12.73;;;12.80;99.90;;;;;;5092473;28;20327;-67
2022/05/21 01:08:01;;;;;;;26.07;13.50;;;12.80;99.90;;;;;;5091124;28;20296;-67
2022/05/21 01:10:33;;;;;;;21.67;12.17;;;12.80;99.90;;;;;;5092542;28;20276;-67
2022/05/21 01:13:01;;;;;;;21.90;11.50;;;12.90;99.90;;;;;;5092221;28;20266;-67
2022/05/21 01:15:32;;;;;;;25.47;12.27;;;12.90;99.90;;;;;;5092554;28;20278;-67
2022/05/21 01:17:58;;;;;;;22.73;11.23;;;13.00;99.90;;;;;;5092142;28;20274;-67
2022/05/21 01:20:36;;;;;;;24.53;12.50;;;13.00;99.90;;;;;;5092389;28;20340;-67
2022/05/21 01:23:01;;;;;;;24.17;11.37;;;13.10;99.90;;;;;;5091048;28;20051;-67
2022/05/21 01:25:29;;;;;;;24.50;11.00;;;13.10;99.90;;;;;;5092515;28;20286;-67
2022/05/21 01:27:55;;;;;;;25.20;13.37;;;13.10;99.90;;;;;;5092157;28;20055;-67
2022/05/21 01:30:30;;;;;;;22.73;12.47;;;13.10;99.90;;;;;;5092302;28;20290;-67
2022/05/21 01:32:56;;;;;;;29.33;13.65;;;13.10;99.90;;;;;;5091960;28;20051;-67
2022/05/21 01:35:21;;;;;;;23.10;12.23;;;13.10;99.90;;;;;;5093425;28;20126;-67
2022/05/21 01:37:48;;;;;;;26.13;11.20;;;13.10;99.90;;;;;;5095882;28;20380;-68
2022/05/21 01:40:17;;;;;;;27.17;13.33;;;13.10;99.90;;;;;;5096098;28;20048;-67
2022/05/21 01:42:43;;;;;;;23.23;12.57;;;13.10;99.90;;;;;;5094200;28;20297;-68
2022/05/21 01:45:10;;;;;;;25.67;12.03;;;13.10;99.90;;;;;;5096069;28;20672;-67
2022/05/21 01:47:41;;;;;;;25.30;12.20;;;13.20;99.90;;;;;;5095783;28;20123;-68
2022/05/21 01:50:07;;;;;;;28.10;11.63;;;13.20;99.90;;;;;;5095714;28;20284;-67
2022/05/21 01:52:33;;;;;;;23.03;10.10;;;13.20;99.90;;;;;;5094829;28;20321;-67
2022/05/21 01:54:59;;;;;;;21.87;10.30;;;13.20;99.90;;;;;;5095610;28;20326;-67
2022/05/21 01:57:24;;;;;;;24.93;10.80;;;13.20;99.90;;;;;;5094852;28;20098;-67
2022/05/21 01:59:50;;;;;;;28.43;10.80;;;13.20;99.90;;;;;;5095381;28;20093;-67
2022/05/21 02:02:16;;;;;;;27.27;9.37;;;13.30;99.90;;;;;;5077526;28;20040;-67
2022/05/21 02:04:41;;;;;;;28.17;9.53;;;13.30;99.90;;;;;;5077768;28;20051;-67
2022/05/21 02:07:07;;;;;;;26.60;9.30;;;13.30;99.90;;;;;;5095367;28;20092;-67
2022/05/21 02:09:33;;;;;;;27.33;8.73;;;13.30;99.90;;;;;;5077497;28;20044;-67
2022/05/21 02:11:58;;;;;;;25.03;7.37;;;13.30;99.90;;;;;;5095122;28;20189;-67
2022/05/21 02:14:24;;;;;;;30.07;8.00;;;13.30;99.90;;;;;;5095404;28;20059;-67
2022/05/21 02:16:49;;;;;;;20.30;6.83;;;13.40;99.90;;;;;;5094937;28;20047;-68
2022/05/21 02:19:15;;;;;;;27.67;7.30;;;13.30;99.90;;;;;;5094246;28;20047;-68
2022/05/21 02:21:41;;;;;;;22.90;7.47;;;13.40;99.90;;;;;;5095344;28;20048;-67
2022/05/21 02:24:08;;;;;;;27.27;7.20;;;13.40;99.90;;;;;;5095026;28;20052;-67
2022/05/21 02:26:35;;;;;;;22.47;7.07;;;13.40;99.90;;;;;;5095153;28;20281;-67
2022/05/21 02:29:02;;;;;;;26.20;6.67;;;13.30;99.90;;;;;;5094848;28;20375;-67
2022/05/21 02:31:27;;;;;;;28.07;6.90;;;13.40;99.90;;;;;;5094916;28;20278;-67
2022/05/21 02:33:53;;;;;;;22.50;6.70;;;13.40;99.90;;;;;;5094768;28;20278;-67
2022/05/21 02:39:25;;;;;;;25.00;6.87;;;13.30;99.90;;;;;;5095195;28;20056;-67
2022/05/21 02:41:49;;;;;;;31.97;6.37;;;13.20;99.90;;;;;;5093523;28;20313;-68
2022/05/21 02:44:14;;;;;;;28.77;6.77;;;13.20;99.90;;;;;;5095311;28;20340;-67
2022/05/21 02:46:40;;;;;;;25.47;6.07;;;13.20;99.90;;;;;;5094829;28;20629;-67
2022/05/21 02:49:06;;;;;;;21.13;5.90;;;13.20;99.90;;;;;;5093337;28;20050;-67
2022/05/21 02:51:31;;;;;;;26.73;5.67;;;13.20;99.90;;;;;;5094704;28;20047;-67
2022/05/21 02:53:57;;;;;;;17.03;4.93;;;13.20;99.90;;;;;;5094327;28;20048;-67
2022/05/21 02:56:23;;;;;;;27.77;6.07;;;13.20;99.90;;;;;;5094534;28;20058;-67
2022/05/21 02:58:49;;;;;;;29.30;6.80;;;13.30;99.90;;;;;;5094753;28;20048;-67
2022/05/21 03:01:14;;;;;;;25.10;5.10;;;13.30;99.90;;;;;;5094037;28;20710;-67
2022/05/21 03:03:40;;;;;;;28.67;6.23;;;13.40;99.90;;;;;;5094510;28;20053;-67
2022/05/21 03:06:06;;;;;;;25.93;5.37;;;13.40;99.90;;;;;;5094174;28;20509;-68
2022/05/21 03:11:16;;;;;;;20.80;6.00;;;13.40;99.90;;;;;;5093015;28;20056;-69
2022/05/21 03:13:41;;;;;;;23.77;4.67;;;13.40;99.90;;;;;;5094333;28;20420;-67
2022/05/21 03:16:07;;;;;;;18.20;4.97;;;13.40;99.90;;;;;;5094059;28;20040;-68
2022/05/21 03:18:33;;;;;;;20.83;4.80;;;13.40;99.90;;;;;;5094290;28;20044;-67
2022/05/21 03:20:58;;;;;;;30.80;5.60;;;13.40;99.90;;;;;;5093796;28;20043;-67
2022/05/21 03:23:24;;;;;;;28.70;5.20;;;13.50;99.90;;;;;;5093953;28;20043;-66
2022/05/21 03:25:50;;;;;;;20.20;5.63;;;13.50;99.90;;;;;;5093831;28;20145;-65
2022/05/21 03:28:17;;;;;;;21.20;4.83;;;13.40;99.90;;;;;;5093958;28;20044;-68
2022/05/21 03:30:44;;;;;;;23.73;5.23;;;13.50;99.90;;;;;;5093976;28;20055;-67
2022/05/21 03:33:10;;;;;;;18.63;4.30;;;13.50;99.90;;;;;;5093720;28;20278;-68
2022/05/21 03:35:35;;;;;;;24.27;5.17;;;13.50;99.90;;;;;;5093700;28;20630;-68
2022/05/21 03:38:02;;;;;;;22.83;5.47;;;13.50;99.90;;;;;;5075395;28;20290;-68
2022/05/21 03:40:30;;;;;;;20.33;4.70;;;13.50;99.90;;;;;;5093526;28;20496;-67
2022/05/21 03:42:56;;;;;;;17.00;3.90;;;13.60;99.90;;;;;;5093466;28;20345;-70
2022/05/21 03:45:24;;;;;;;17.70;4.20;;;13.60;99.90;;;;;;5093506;28;20295;-68
2022/05/21 03:47:51;;;;;;;22.97;5.50;;;13.60;99.90;;;;;;5093622;28;20361;-68
2022/05/21 03:50:20;;;;;;;19.60;4.27;;;13.60;99.90;;;;;;5093235;28;20290;-68
2022/05/21 03:52:46;;;;;;;20.70;5.07;;;13.60;99.90;;;;;;5093318;28;20339;-68
2022/05/21 03:55:12;;;;;;;18.43;4.20;;;13.60;99.90;;;;;;5093228;28;20773;-68
2022/05/21 03:57:37;;;;;;;18.97;4.33;;;13.50;99.90;;;;;;5093008;28;20048;-68
2022/05/21 04:00:06;;;;;;;18.40;4.90;;;13.60;99.90;;;;;;5093251;28;20857;-68
2022/05/21 04:02:32;;;;;;;21.40;4.63;;;13.60;99.90;;;;;;5091993;28;20040;-68
2022/05/21 04:04:59;;;;;;;15.40;3.93;;;13.50;99.90;;;;;;5091978;28;20365;-71
2022/05/21 04:07:24;;;;;;;14.73;3.63;;;13.50;99.90;;;;;;5093102;28;20278;-68
2022/05/21 04:09:50;;;;;;;17.23;3.97;;;13.50;99.90;;;;;;5093459;28;20316;-68
2022/05/21 04:12:17;;;;;;;19.90;4.50;;;13.50;99.90;;;;;;5092065;28;20571;-68
2022/05/21 04:14:42;;;;;;;18.50;3.87;;;13.60;99.90;;;;;;5092209;28;20048;-68
2022/05/21 04:17:13;;;;;;;15.87;3.40;;;13.60;99.90;;;;;;5092814;28;20776;-68
2022/05/21 04:19:40;;;;;;;16.30;3.87;;;13.60;99.90;;;;;;5093144;28;20044;-68
2022/05/21 04:22:06;;;;;;;18.23;4.23;;;13.50;99.90;;;;;;5091187;28;20644;-68
2022/05/21 04:24:32;;;;;;;19.80;4.03;;;13.50;99.90;;;;;;5093120;28;20762;-68
2022/05/21 04:26:58;;;;;;;20.57;5.10;;;13.50;99.90;;;;;;5092177;28;20282;-68
2022/05/21 04:29:24;;;;;;;19.00;4.03;;;13.50;99.90;;;;;;5092817;28;20047;-69
2022/05/21 04:31:49;;;;;;;16.57;4.10;;;13.50;99.90;;;;;;5092954;28;20051;-68
2022/05/21 04:34:15;;;;;;;18.70;4.50;;;13.50;99.90;;;;;;5092523;28;20040;-68
2022/05/21 04:36:41;;;;;;;15.63;4.10;;;13.50;99.90;;;;;;5092795;28;20043;-68
2022/05/21 04:39:07;;;;;;;16.43;4.40;;;13.50;99.90;;;;;;5092708;28;20087;-69
2022/05/21 04:41:34;;;;;;;16.07;3.50;;;13.50;99.90;;;;;;5092660;28;20040;-69
2022/05/21 04:44:02;;;;;;;16.97;4.23;;;13.50;99.90;;;;;;5092927;28;20293;-68
2022/05/21 04:46:28;;;;;;;18.83;3.53;;;13.60;99.90;;;;;;5092686;28;20294;-68
2022/05/21 04:48:54;;;;;;;15.10;3.60;;;13.60;99.90;;;;;;5091391;28;20337;-67
2022/05/21 04:51:20;;;;;;;26.83;3.60;;;13.60;99.90;;;;;;5092455;28;20297;-68
2022/05/21 04:53:47;;;;;;;16.37;3.77;;;13.70;99.90;;;;;;5093087;28;20697;-68
2022/05/21 04:56:13;;;;;;;15.70;4.10;;;13.70;99.90;;;;;;5091622;28;20335;-68
2022/05/21 04:58:38;;;;;;;20.23;3.90;;;13.80;99.90;;;;;;5091760;28;20290;-68
2022/05/21 05:01:04;;;;;;;16.80;3.73;;;13.80;99.90;;;;;;5092597;28;20487;-71
2022/05/21 05:03:31;;;;;;;18.80;3.30;;;13.80;99.90;;;;;;5092642;28;20044;-68
2022/05/21 05:05:57;;;;;;;15.23;3.47;;;13.80;99.90;;;;;;5092499;28;20072;-68
2022/05/21 05:08:23;;;;;;;20.50;4.10;;;13.80;99.90;;;;;;5092391;28;20373;-69
2022/05/21 05:10:50;;;;;;;15.40;4.03;;;13.90;99.90;;;;;;5094714;28;20380;-68
2022/05/21 05:13:16;;;;;;;14.60;3.00;;;13.90;99.90;;;;;;5096378;28;20274;-68
2022/05/21 05:15:44;;;;;;;16.30;3.40;;;13.90;99.90;;;;;;5096495;28;20285;-68
2022/05/21 05:18:12;;;;;;;16.40;3.70;;;13.90;99.90;;;;;;5096267;28;20368;-70
2022/05/21 05:20:38;;;;;;;15.53;2.83;;;14.00;99.90;;;;;;5096272;28;20642;-68
2022/05/21 05:23:05;;;;;;;14.03;3.30;;;14.10;99.90;;;;;;5095051;28;20298;-69
2022/05/21 05:25:31;;;;;;;16.07;3.27;;;14.30;99.90;;;;;;5096036;28;20062;-69
2022/05/21 05:27:57;;;;;;;14.27;3.30;;;14.40;99.90;;;;;;5096409;28;20278;-68
2022/05/21 05:30:24;;;;;;;17.70;4.23;;;;;;;;;;5095833;28;20338;-69
2022/05/21 05:32:50;;;;;;;16.97;3.40;;;;;;;;;;5096037;28;20051;-69
2022/05/21 05:35:16;;;;;;;14.00;3.87;;;14.70;99.90;;;;;;5095777;28;20282;-69
2022/05/21 05:37:42;;;;;;;16.83;3.53;;;14.70;99.90;;;;;;5096186;28;20282;-69
2022/05/21 05:40:13;;;;;;;14.80;3.57;;;14.80;99.90;;;;;;5096028;28;20362;-68
2022/05/21 05:42:39;;;;;;;15.23;3.07;;;14.90;99.90;;;;;;5096300;28;20135;-69
2022/05/21 05:45:06;;;;;;;14.40;3.83;;;15.20;99.90;;;;;;5094741;28;20286;-69
2022/05/21 05:47:33;;;;;;;20.30;3.50;;;15.30;99.90;;;;;;5095557;28;20331;-69
2022/05/21 05:49:59;;;;;;;13.13;3.97;;;15.60;99.90;;;;;;5095998;28;20338;-69
2022/05/21 05:52:25;;;;;;;15.07;3.57;;;16.30;99.90;;;;;;5095555;28;20305;-69
2022/05/21 05:54:51;;;;;;;15.73;4.37;;;16.90;99.90;;;;;;5095762;28;20754;-69
2022/05/21 05:57:17;;;;;;;17.07;4.37;;;17.20;99.90;;;;;;5095457;28;20055;-69
2022/05/21 05:59:49;;;;;;;14.13;3.67;;;17.20;99.90;;;;;;5094795;28;20063;-69
2022/05/21 06:05:14;;;;;;;18.63;4.27;;;16.70;99.90;;;;;;5095776;28;20047;-69
2022/05/21 06:07:44;;;;;;;19.60;4.03;;;16.60;99.90;;;;;;5095415;28;20059;-69
2022/05/21 06:10:12;;;;;;;12.33;3.27;;;16.70;99.90;;;;;;5077792;28;20388;-69
2022/05/21 06:12:38;;;;;;;17.77;4.00;;;16.60;99.90;;;;;;5095245;28;20040;-69
2022/05/21 06:15:04;;;;;;;15.37;3.00;;;16.40;99.90;;;;;;5095496;28;20048;-69
2022/05/21 06:17:30;;;;;;;17.80;3.40;;;16.50;99.90;;;;;;5095138;28;20385;-69
2022/05/21 06:19:55;;;;;;;15.03;2.83;;;16.40;99.90;;;;;;5095540;28;20055;-69
2022/05/21 06:22:21;;;;;;;17.63;4.03;;;16.50;99.90;;;;;;5094497;28;20566;-69
2022/05/21 06:24:47;;;;;;;14.97;3.77;;;16.60;99.90;;;;;;5093940;28;20039;-69
2022/05/21 06:27:13;;;;;;;16.53;4.00;;;16.80;99.90;;;;;;5093800;28;20052;-69
2022/05/21 06:29:38;;;;;;;14.03;3.47;;;17.80;99.90;;;;;;5094857;28;20043;-69
2022/05/21 06:32:05;;;;;;;16.33;3.20;;;18.30;99.90;;;;;;5095174;28;20048;-69
2022/05/21 06:34:31;;;;;;;15.83;3.73;;;18.20;99.90;;;;;;5094843;28;20502;-69
2022/05/21 06:37:06;;;;;;;14.93;3.93;;;18.00;99.90;;;;;;5094794;28;20396;-69
2022/05/21 06:39:34;;;;;;;14.98;4.20;;;17.70;99.90;;;;;;5094644;28;20440;-70
2022/05/21 06:42:00;;;;;;;16.47;3.33;;;17.70;99.90;;;;;;5094827;28;20140;-70
2022/05/21 06:44:26;;;;;;;16.80;3.60;;;18.10;99.90;;;;;;5094626;28;20051;-71
2022/05/21 06:46:53;;;;;;;17.93;3.83;;;18.60;99.90;;;;;;5094833;28;20052;-70
2022/05/21 06:49:19;;;;;;;17.07;3.33;;;19.60;99.90;;;;;;5094476;28;20385;-71
2022/05/21 06:51:45;;;;;;;14.53;3.23;;;20.00;99.90;;;;;;5094600;28;20047;-71
2022/05/21 06:54:11;;;;;;;14.57;3.97;;;19.60;99.90;;;;;;5094387;28;20123;-71
2022/05/21 06:56:42;;;;;;;15.53;3.37;;;19.70;99.90;;;;;;5093168;28;20040;-72
2022/05/21 06:59:08;;;;;;;14.17;3.53;;;19.80;99.90;;;;;;5094884;28;20066;-71
2022/05/21 07:01:33;;;;;;;18.67;3.43;;;20.80;99.90;;;;;;5094191;28;20476;-72
2022/05/21 07:03:59;;;;;;;12.00;3.27;;;21.60;99.90;;;;;;5094461;28;20037;-72
2022/05/21 07:09:09;;;;;;;13.60;3.07;;;21.60;98.20;;;;;;5094640;28;20407;-71
2022/05/21 07:11:37;;;;;;;14.17;3.47;;;22.40;95.00;;;;;;5094069;28;20281;-72
2022/05/21 07:14:03;;;;;;;11.50;3.40;;;23.40;91.20;;;;;;5094457;28;20059;-71
2022/05/21 07:16:28;;;;;;;10.83;3.70;;;23.40;83.90;;;;;;5093878;28;20392;-72
2022/05/21 07:18:55;;;;;;;12.33;3.90;;;23.40;80.40;;;;;;5094073;28;20051;-72
2022/05/21 07:21:20;;;;;;;14.33;3.90;;;22.60;74.30;;;;;;5093511;28;20152;-73
2022/05/21 07:23:47;;;;;;;14.97;4.57;;;22.20;76.40;;;;;;5094120;28;20661;-73
2022/05/21 07:26:13;;;;;;;17.37;3.83;;;22.70;77.90;;;;;;5093101;28;20488;-72
2022/05/21 07:28:38;;;;;;;11.73;3.13;;;23.20;75.60;;;;;;5093657;28;20055;-72
2022/05/21 07:31:05;;;;;;;11.17;3.23;;;;;;;;;;5093967;28;20152;-72
2022/05/21 07:33:31;;;;;;;11.90;3.13;;;22.20;74.20;;;;;;5092754;28;20086;-72
2022/05/21 07:35:56;;;;;;;14.73;4.07;;;22.60;74.60;;;;;;5092717;28;20083;-73
2022/05/21 07:38:22;;;;;;;16.03;3.70;;;23.50;73.50;;;;;;5093633;28;20487;-73
2022/05/21 07:40:48;;;;;;;14.77;3.47;;;23.70;85.00;;;;;;5093853;28;20047;-73
2022/05/21 07:43:27;;;;;;;12.33;3.17;;;23.20;63.40;;;;;;5093473;28;20056;-73
2022/05/21 07:46:02;;;;;;;11.93;3.23;;;22.90;65.50;;;;;;5093778;28;20079;-72
2022/05/21 07:48:28;;;;;;;17.30;3.40;;;22.40;66.40;;;;;;5093215;28;20091;-73
2022/05/21 07:50:57;;;;;;;13.80;3.57;;;22.10;68.70;;;;;;5092394;28;20040;-73
2022/05/21 07:53:29;;;;;;;14.13;3.40;;;22.80;70.40;;;;;;5093492;28;20082;-74
2022/05/21 07:55:56;;;;;;;11.97;2.97;;;22.90;66.40;;;;;;5093604;28;20499;-73
2022/05/21 07:58:23;;;;;;;9.20;2.97;;;22.60;65.70;;;;;;5075634;28;20101;-73
2022/05/21 08:00:50;;;;;;;14.83;3.47;;;22.70;67.20;;;;;;5093370;28;20124;-73
2022/05/21 08:03:15;;;;;;;13.57;3.23;;;22.50;67.80;;;;;;5093261;28;20073;-73
2022/05/21 08:05:42;;;;;;;11.53;3.50;;;22.00;68.90;;;;;;5093142;28;20048;-73
2022/05/21 08:08:09;;;;;;;14.77;3.30;;;22.00;72.60;;;;;;5092330;28;20399;-73
2022/05/21 08:10:37;;;;;;;14.30;3.20;;;22.10;70.40;;;;;;5092805;28;20504;-73
2022/05/21 08:13:03;;;;;;;17.57;4.37;;;21.90;69.70;;;;;;5093095;28;20545;-73
2022/05/21 08:15:29;;;;;;;13.57;4.27;;;22.30;74.60;;;;;;5092945;28;20044;-72
2022/05/21 08:17:55;;;;;;;14.07;3.50;;;22.50;71.20;;;;;;5093271;28;20051;-73
2022/05/21 08:20:21;;;;;;;12.77;3.47;;;22.20;69.40;;;;;;5093141;28;20119;-72
2022/05/21 08:28:16;;;;;;;14.70;3.75;;;23.70;63.70;;;;;;5092906;28;20079;-72
2022/05/21 08:30:47;;;;;;;12.30;2.83;;;23.10;61.60;;;;;;5092751;28;20531;-74
2022/05/21 08:33:16;;;;;;;12.17;3.43;;;22.60;63.30;;;;;;5093050;28;20484;-73
2022/05/21 08:35:42;;;;;;;12.93;2.80;;;22.20;66.50;;;;;;5092649;28;20054;-73
2022/05/21 08:38:10;;;;;;;15.97;4.00;;;21.90;67.90;;;;;;5092982;28;20440;-73
2022/05/21 08:40:36;;;;;;;14.07;3.60;;;21.70;70.90;;;;;;5092546;28;20040;-72
2022/05/21 08:43:05;;;;;;;12.27;3.20;;;21.50;70.60;;;;;;5092916;28;20059;-72
2022/05/21 08:46:27;;;;;;;13.50;3.40;;;21.30;71.30;;;;;;5098586;28;20060;-72
2022/05/21 08:49:01;;;;;;;10.30;3.00;;;21.00;75.20;;;;;;5036849;28;20107;-72
2022/05/21 08:51:30;;;;;;;10.65;2.63;;;20.60;76.40;;;;;;5090467;28;20060;-71
2022/05/21 08:53:56;;;;;;;10.43;2.70;;;20.30;75.20;;;;;;5099767;28;20058;-73
2022/05/21 08:56:24;;;;;;;16.57;3.43;;;20.10;77.40;;;;;;5099526;28;20079;-73
2022/05/21 08:59:01;;;;;;;14.10;3.13;;;20.20;80.50;;;;;;5099265;28;20433;-71
2022/05/21 09:01:27;;;;;;;12.17;2.97;;;20.20;83.30;;;;;;5098352;28;20047;-73
2022/05/21 09:03:54;;;;;;;12.50;3.37;;;20.00;82.90;;;;;;5097953;28;20044;-74
2022/05/21 09:06:54;;;;;;;14.93;3.90;;;19.90;83.60;;;;;;5099485;28;20052;-73
2022/05/21 09:09:34;;;;;;;9.43;2.63;;;19.80;84.00;;;;;;5098379;28;20484;-73
2022/05/21 09:12:19;;;;;;;11.37;2.87;;;19.80;84.10;;;;;;5099206;28;20086;-74
2022/05/21 09:14:47;;;;;;;12.55;3.83;;;19.90;87.90;;;;;;5099106;28;20499;-75
2022/05/21 09:17:20;;;;;;;10.57;2.40;;;19.80;87.30;;;;;;5099271;28;20059;-74
2022/05/21 09:19:49;;;;;;;12.30;2.83;;;19.70;88.60;;;;;;5098880;28;20480;-74
2022/05/21 09:22:18;;;;;;;15.10;3.47;;;19.60;90.00;;;;;;5099062;28;20047;-73
2022/05/21 09:24:48;;;;;;;10.80;2.77;;;19.60;90.80;;;;;;5099081;28;20048;-76
2022/05/21 09:27:20;;;;;;;10.53;3.50;;;19.80;91.40;;;;;;5099319;28;20043;-74
2022/05/21 09:29:46;;;;;;;14.17;3.33;;;19.90;91.30;;;;;;5097808;28;20076;-75
2022/05/21 09:32:35;;;;;;;8.37;2.30;;;19.90;91.20;;;;;;5099059;28;20078;-76
2022/05/21 09:35:12;;;;;;;10.77;3.03;;;19.90;91.50;;;;;;5099083;28;20047;-73
2022/05/21 09:37:40;;;;;;;13.20;4.07;;;19.80;89.10;;;;;;5099194;28;20047;-73
2022/05/21 09:40:28;;;;;;;11.27;2.90;;;19.70;89.30;;;;;;5099421;28;20044;-76
2022/05/21 09:45:39;;;;;;;9.60;3.03;;;19.60;91.60;;;;;;5098920;28;20514;-75
2022/05/21 09:48:05;;;;;;;14.07;3.50;;;19.50;93.10;;;;;;5097862;28;20286;-75
2022/05/21 09:50:46;;;;;;;10.40;2.77;;;19.60;92.70;;;;;;5099095;28;20074;-73
2022/05/21 09:53:36;;;;;;;12.23;3.00;;;19.70;93.20;;;;;;5098925;28;20036;-72
2022/05/21 09:56:08;;;;;;;14.90;3.30;;;19.60;92.30;;;;;;5097052;28;20052;-75
2022/05/21 09:58:38;;;;;;;11.33;2.57;;;19.40;92.20;;;;;;5096051;28;20116;-75
2022/05/21 10:01:05;;;;;;;9.77;3.57;;;19.30;91.90;;;;;;5095758;28;20046;-74
2022/05/21 10:03:38;;;;;;;13.50;3.23;;;19.20;90.70;;;;;;5094555;28;20094;-74
2022/05/21 10:06:27;;;;;;;13.17;3.20;;;19.00;91.50;;;;;;5094352;28;20087;-74
2022/05/21 10:12:05;;;;;;;13.43;3.53;;;18.90;93.60;;;;;;5095234;28;20055;-73
2022/05/21 10:14:51;;;;;;;11.70;2.72;;;19.00;94.40;;;;;;5095392;28;20541;-70
2022/05/21 10:17:26;;;;;;;12.13;2.60;;;19.00;92.80;;;;;;5094601;28;20551;-72
2022/05/21 10:19:51;;;;;;;8.93;2.35;;;18.80;93.00;;;;;;5095077;28;20048;-74
2022/05/21 10:22:44;;;;;;;13.83;3.60;;;18.70;93.40;;;;;;5095087;28;20047;-72
2022/05/21 10:25:20;;;;;;;15.37;4.03;;;18.70;93.40;;;;;;5094234;28;20059;-73
2022/05/21 10:28:07;;;;;;;17.10;3.40;;;18.90;92.40;;;;;;5095045;28;20131;-75
2022/05/21 10:31:14;;;;;;;10.80;2.60;;;19.00;92.80;;;;;;5095236;28;20420;-74
2022/05/21 10:33:46;;;;;;;9.80;2.63;;;19.10;94.90;;;;;;5095403;28;20075;-74
2022/05/21 10:36:52;;;;;;;9.73;2.60;;;19.10;94.00;;;;;;5095072;28;20044;-74
2022/05/21 10:39:51;;;;;;;11.80;2.70;;;18.90;91.50;;;;;;5055920;28;20438;-74
2022/05/21 10:42:32;;;;;;;15.20;3.17;;;18.70;91.80;;;;;;5094969;28;20048;-73
2022/05/21 10:45:14;;;;;;;12.33;2.80;;;18.50;93.00;;;;;;5094644;28;20411;-71
2022/05/21 10:47:57;;;;;;;9.80;2.40;;;18.50;94.00;;;;;;5094752;28;20052;-72
2022/05/21 10:50:38;;;;;;;16.27;3.50;;;18.50;93.30;;;;;;5094939;28;20083;-73
2022/05/21 10:53:06;;;;;;;9.03;2.63;;;18.50;93.50;;;;;;5094340;28;20543;-74
2022/05/21 10:55:46;;;;;;;16.20;3.43;;;18.50;94.10;;;;;;5094638;28;20098;-74
2022/05/21 10:58:25;;;;;;;16.83;4.10;;;18.50;95.30;;;;;;5094565;28;20090;-73
2022/05/21 11:01:01;;;;;;;13.30;3.80;;;18.40;95.50;;;;;;5094549;28;20087;-73
2022/05/21 11:03:41;;;;;;;14.27;3.27;;;18.20;95.60;;;;;;5093505;28;20052;-73
2022/05/21 11:06:19;;;;;;;17.47;3.40;;;18.20;97.40;;;;;;5093228;28;20058;-73
2022/05/21 11:09:10;;;;;;;10.50;2.70;;;18.20;96.40;;;;;;5092779;28;20052;-74
2022/05/21 11:11:58;;;;;;;13.70;3.43;;;18.10;96.40;;;;;;5094405;28;20058;-75
2022/05/21 11:14:31;;;;;;;14.70;3.07;;;18.10;97.10;;;;;;5094189;28;20055;-74
2022/05/21 11:17:21;;;;;;;13.20;2.97;;;18.10;97.70;;;;;;5093977;28;20040;-74
2022/05/21 11:19:57;;;;;;;13.50;3.40;;;18.20;98.10;;;;;;5094127;28;20126;-76
2022/05/21 11:22:44;;;;;;;11.17;3.10;;;18.20;99.00;;;;;;5094436;28;20044;-76
2022/05/21 11:25:27;;;;;;;14.77;3.03;;;18.30;99.30;;;;;;5093958;28;20117;-75
2022/05/21 11:27:59;;;;;;;12.10;3.00;;;18.40;99.50;;;;;;5093973;28;20392;-75
2022/05/21 11:30:26;;;;;;;12.00;3.17;;;18.40;97.40;;;;;;5093853;28;20575;-75
2022/05/21 11:38:45;;;;;;;13.33;2.63;;;18.50;98.10;;;;;;5094156;28;20134;-73
2022/05/21 11:41:25;;;;;;;11.20;3.27;;;18.60;96.30;;;;;;5093499;28;20040;-74
2022/05/21 11:47:20;;;;;;;10.50;2.67;;;18.60;95.70;;;;;;5093496;28;20080;-74
2022/05/21 11:49:51;;;;;;;14.63;3.03;;;18.70;96.30;;;;;;5093492;28;20141;-72
2022/05/21 11:52:32;;;;;;;7.40;2.03;;;18.80;95.40;;;;;;5093469;28;20085;-73
2022/05/21 11:54:57;;;;;;;10.47;2.60;;;18.90;94.40;;;;;;5092235;28;20179;-77
2022/05/21 11:57:42;;;;;;;11.73;2.87;;;19.00;92.70;;;;;;5093778;28;20068;-82
2022/05/21 12:00:11;;;;;;;10.05;3.55;;;19.00;92.00;;;;;;5093218;28;20116;-74
2022/05/21 12:02:59;;;;;;;11.10;2.60;;;18.90;92.40;;;;;;5093350;28;20475;-74
2022/05/21 12:05:34;;;;;;;10.43;2.57;;;18.90;92.60;;;;;;5093445;28;20083;-72
2022/05/21 12:08:16;;;;;;;;;;;18.90;91.40;;;;;;5093488;28;20055;-75
2022/05/21 12:10:53;;;;;;;14.13;3.13;;;19.00;90.60;;;;;;5093437;28;19920;-74
2022/05/21 12:13:22;;;;;;;11.37;2.43;;;19.00;91.30;;;;;;5091977;28;20079;-74
2022/05/21 12:15:50;;;;;;;11.13;3.13;;;19.00;92.30;;;;;;5093232;28;20048;-73
2022/05/21 12:18:25;;;;;;;9.50;2.63;;;19.10;93.20;;;;;;5093032;28;20040;-74
2022/05/21 12:20:52;;;;;;;10.88;2.13;;;19.20;90.90;;;;;;5091660;28;20048;-74
2022/05/21 12:23:29;;;;;;;9.30;2.30;;;19.20;90.10;;;;;;5092817;28;20040;-74
2022/05/21 12:26:23;;;;;;;10.07;2.20;;;19.20;89.60;;;;;;5092353;28;20087;-75
2022/05/21 12:29:02;;;;;;;9.33;2.47;;;19.20;88.40;;;;;;5092827;28;20498;-73
2022/05/21 12:31:41;;;;;;;12.87;2.43;;;19.20;86.40;;;;;;5092844;28;20475;-70
2022/05/21 12:34:22;;;;;;;8.53;1.90;;;19.20;86.30;;;;;;5092481;28;20047;-74
2022/05/21 12:37:15;;;;;;;9.57;2.33;;;19.20;88.70;;;;;;5093561;28;20087;-75
2022/05/21 12:39:53;;;;;;;10.50;2.53;;;19.20;84.80;;;;;;5091838;28;20491;-75
2022/05/21 12:42:36;;;;;;;9.90;2.70;;;19.20;86.70;;;;;;5091958;28;20530;-78
2022/05/21 12:45:03;;;;;;;8.93;2.20;;;19.20;87.80;;;;;;5091309;28;20510;-78
2022/05/21 12:47:44;;;;;;;12.13;2.20;;;19.10;87.00;;;;;;5092089;28;20052;-75
2022/05/21 12:50:19;;;;;;;9.40;2.77;;;19.10;88.90;;;;;;5091612;28;20044;-74
2022/05/21 12:52:51;;;;;;;9.60;2.80;;;19.10;88.70;;;;;;5092633;28;20112;-74
2022/05/21 12:55:20;;;;;;;8.93;2.40;;;19.10;90.40;;;;;;5092435;28;20063;-78
2022/05/21 12:57:50;;;;;;;10.37;2.93;;;19.20;90.30;;;;;;5091869;28;20495;-76
2022/05/21 13:00:21;;;;;;;9.37;2.33;;;19.10;90.80;;;;;;5090944;28;20614;-76
2022/05/21 13:02:50;;;;;;;13.33;2.63;;;19.00;86.80;;;;;;5092324;28;20044;-76
2022/05/21 13:05:29;;;;;;;11.27;2.27;;;18.90;86.30;;;;;;5091198;28;20120;-77
2022/05/21 13:08:01;;;;;;;11.30;3.20;;;18.90;88.80;;;;;;5091679;28;20531;-76
2022/05/21 13:10:35;;;;;;;13.00;3.17;;;18.80;90.80;;;;;;5092678;28;20085;-76
2022/05/21 13:13:23;;;;;;;14.38;3.10;;;18.80;91.00;;;;;;5092155;28;20492;-75
2022/05/21 13:16:05;;;;;;;12.77;3.33;;;18.80;92.20;;;;;;5091483;28;20048;-76
2022/05/21 13:19:18;;;;;;;8.73;2.40;;;18.80;92.70;;;;;;5092045;28;20054;-74
2022/05/21 13:22:00;;;;;;;11.60;3.00;;;18.90;93.50;;;;;;5085209;28;20048;-77
2022/05/21 13:24:45;;;;;;;10.83;3.13;;;19.00;93.30;;;;;;5090611;28;20044;-73
2022/05/21 13:27:20;;;;;;;15.83;3.57;;;18.90;92.70;;;;;;5087097;28;20052;-76